sensor_id;sensor_type;location;lat;lon;timestamp;P1;durP1;ratioP1;P2;durP2;ratioP2
21036;SDS011;10677;50.942;4.028;2023-06-14T00:01:41;9.90;;;6.15;;
21036;SDS011;10677;50.942;4.028;2023-06-14T00:04:10;14.10;;;6.38;;
21036;SDS011;10677;50.942;4.028;2023-06-14T00:06:36;11.40;;;6.30;;
21036;SDS011;10677;50.942;4.028;2023-06-14T00:09:03;8.27;;;6.03;;
21036;SDS011;10677;50.942;4.028;2023-06-14T00:11:30;9.52;;;6.30;;
21036;SDS011;10677;50.942;4.028;2023-06-14T00:13:56;13.35;;;6.65;;
21036;SDS011;10677;50.942;4.028;2023-06-14T00:16:22;11.15;;;6.55;;
21036;SDS011;10677;50.942;4.028;2023-06-14T00:18:48;12.90;;;7.13;;
21036;SDS011;10677;50.942;4.028;2023-06-14T00:21:14;12.07;;;6.13;;
21036;SDS011;10677;50.942;4.028;2023-06-14T00:23:40;13.57;;;6.45;;
21036;SDS011;10677;50.942;4.028;2023-06-14T00:26:05;14.60;;;6.72;;
21036;SDS011;10677;50.942;4.028;2023-06-14T00:28:31;13.20;;;6.50;;
21036;SDS011;10677;50.942;4.028;2023-06-14T00:30:56;9.90;;;7.15;;
21036;SDS011;10677;50.942;4.028;2023-06-14T00:33:22;8.85;;;6.32;;
21036;SDS011;10677;50.942;4.028;2023-06-14T00:35:48;13.07;;;7.43;;
21036;SDS011;10677;50.942;4.028;2023-06-14T00:38:13;11.23;;;6.63;;
21036;SDS011;10677;50.942;4.028;2023-06-14T00:40:42;12.13;;;6.78;;
21036;SDS011;10677;50.942;4.028;2023-06-14T00:43:07;11.30;;;6.85;;
21036;SDS011;10677;50.942;4.028;2023-06-14T00:45:33;10.40;;;7.38;;
21036;SDS011;10677;50.942;4.028;2023-06-14T00:48:01;10.65;;;7.88;;
21036;SDS011;10677;50.942;4.028;2023-06-14T00:50:27;13.35;;;7.65;;
21036;SDS011;10677;50.942;4.028;2023-06-14T00:52:54;13.93;;;7.15;;
21036;SDS011;10677;50.942;4.028;2023-06-14T00:55:21;10.38;;;7.55;;
21036;SDS011;10677;50.942;4.028;2023-06-14T00:57:47;10.35;;;7.35;;
21036;SDS011;10677;50.942;4.028;2023-06-14T01:00:14;10.63;;;8.05;;
21036;SDS011;10677;50.942;4.028;2023-06-14T01:02:40;12.32;;;7.00;;
21036;SDS011;10677;50.942;4.028;2023-06-14T01:05:06;11.73;;;7.20;;
21036;SDS011;10677;50.942;4.028;2023-06-14T01:07:54;11.25;;;7.93;;
21036;SDS011;10677;50.942;4.028;2023-06-14T01:10:47;10.30;;;7.18;;
21036;SDS011;10677;50.942;4.028;2023-06-14T01:13:38;14.45;;;7.90;;
21036;SDS011;10677;50.942;4.028;2023-06-14T01:16:08;10.18;;;7.78;;
21036;SDS011;10677;50.942;4.028;2023-06-14T01:18:35;12.45;;;7.97;;
21036;SDS011;10677;50.942;4.028;2023-06-14T01:21:01;12.10;;;8.10;;
21036;SDS011;10677;50.942;4.028;2023-06-14T01:23:30;10.48;;;7.63;;
21036;SDS011;10677;50.942;4.028;2023-06-14T01:25:58;13.90;;;7.50;;
21036;SDS011;10677;50.942;4.028;2023-06-14T01:28:24;14.02;;;7.30;;
21036;SDS011;10677;50.942;4.028;2023-06-14T01:30:56;12.43;;;8.30;;
21036;SDS011;10677;50.942;4.028;2023-06-14T01:33:29;15.93;;;7.85;;
21036;SDS011;10677;50.942;4.028;2023-06-14T01:35:57;12.43;;;8.38;;
21036;SDS011;10677;50.942;4.028;2023-06-14T01:38:25;10.65;;;7.32;;
21036;SDS011;10677;50.942;4.028;2023-06-14T01:40:51;15.73;;;7.95;;
21036;SDS011;10677;50.942;4.028;2023-06-14T01:43:20;10.70;;;7.93;;
21036;SDS011;10677;50.942;4.028;2023-06-14T01:45:47;13.15;;;8.18;;
21036;SDS011;10677;50.942;4.028;2023-06-14T01:48:14;16.02;;;7.50;;
21036;SDS011;10677;50.942;4.028;2023-06-14T01:50:40;12.48;;;7.82;;
21036;SDS011;10677;50.942;4.028;2023-06-14T01:53:10;12.95;;;7.28;;
21036;SDS011;10677;50.942;4.028;2023-06-14T01:55:36;9.98;;;7.32;;
21036;SDS011;10677;50.942;4.028;2023-06-14T01:58:09;13.65;;;8.07;;
21036;SDS011;10677;50.942;4.028;2023-06-14T02:00:35;15.23;;;8.15;;
21036;SDS011;10677;50.942;4.028;2023-06-14T02:03:01;15.30;;;8.10;;
21036;SDS011;10677;50.942;4.028;2023-06-14T02:05:29;11.95;;;7.50;;
21036;SDS011;10677;50.942;4.028;2023-06-14T02:07:55;11.02;;;8.10;;
21036;SDS011;10677;50.942;4.028;2023-06-14T02:10:21;11.77;;;7.25;;
21036;SDS011;10677;50.942;4.028;2023-06-14T02:12:47;11.38;;;7.50;;
21036;SDS011;10677;50.942;4.028;2023-06-14T02:15:13;11.82;;;7.88;;
21036;SDS011;10677;50.942;4.028;2023-06-14T02:17:42;11.60;;;7.80;;
21036;SDS011;10677;50.942;4.028;2023-06-14T02:20:08;10.52;;;7.97;;
21036;SDS011;10677;50.942;4.028;2023-06-14T02:22:34;15.10;;;7.97;;
21036;SDS011;10677;50.942;4.028;2023-06-14T02:25:00;10.65;;;8.07;;
21036;SDS011;10677;50.942;4.028;2023-06-14T02:27:26;10.40;;;7.72;;
21036;SDS011;10677;50.942;4.028;2023-06-14T02:29:51;12.18;;;7.63;;
21036;SDS011;10677;50.942;4.028;2023-06-14T02:32:17;10.75;;;7.38;;
21036;SDS011;10677;50.942;4.028;2023-06-14T02:34:42;15.68;;;8.68;;
21036;SDS011;10677;50.942;4.028;2023-06-14T02:37:08;12.75;;;7.70;;
21036;SDS011;10677;50.942;4.028;2023-06-14T02:39:34;13.07;;;7.78;;
21036;SDS011;10677;50.942;4.028;2023-06-14T02:42:00;13.07;;;8.18;;
21036;SDS011;10677;50.942;4.028;2023-06-14T02:44:26;12.25;;;8.27;;
21036;SDS011;10677;50.942;4.028;2023-06-14T02:46:53;11.32;;;8.07;;
21036;SDS011;10677;50.942;4.028;2023-06-14T02:49:20;12.13;;;7.70;;
21036;SDS011;10677;50.942;4.028;2023-06-14T02:51:46;13.82;;;8.45;;
21036;SDS011;10677;50.942;4.028;2023-06-14T02:54:12;13.77;;;8.68;;
21036;SDS011;10677;50.942;4.028;2023-06-14T02:56:37;10.40;;;7.82;;
21036;SDS011;10677;50.942;4.028;2023-06-14T02:59:03;11.70;;;8.52;;
21036;SDS011;10677;50.942;4.028;2023-06-14T03:01:28;13.13;;;8.40;;
21036;SDS011;10677;50.942;4.028;2023-06-14T03:04:02;13.13;;;8.23;;
21036;SDS011;10677;50.942;4.028;2023-06-14T03:06:31;11.43;;;8.32;;
21036;SDS011;10677;50.942;4.028;2023-06-14T03:08:58;14.70;;;7.82;;
21036;SDS011;10677;50.942;4.028;2023-06-14T03:11:25;13.55;;;8.82;;
21036;SDS011;10677;50.942;4.028;2023-06-14T03:13:51;16.25;;;8.63;;
21036;SDS011;10677;50.942;4.028;2023-06-14T03:16:17;14.63;;;9.15;;
21036;SDS011;10677;50.942;4.028;2023-06-14T03:18:46;12.05;;;8.60;;
21036;SDS011;10677;50.942;4.028;2023-06-14T03:21:14;11.15;;;8.02;;
21036;SDS011;10677;50.942;4.028;2023-06-14T03:23:41;15.30;;;8.90;;
21036;SDS011;10677;50.942;4.028;2023-06-14T03:26:07;14.07;;;8.50;;
21036;SDS011;10677;50.942;4.028;2023-06-14T03:28:33;15.45;;;8.30;;
21036;SDS011;10677;50.942;4.028;2023-06-14T03:30:58;14.93;;;8.25;;
21036;SDS011;10677;50.942;4.028;2023-06-14T03:33:24;14.18;;;8.88;;
21036;SDS011;10677;50.942;4.028;2023-06-14T03:35:50;17.45;;;8.75;;
21036;SDS011;10677;50.942;4.028;2023-06-14T03:38:16;12.70;;;8.50;;
21036;SDS011;10677;50.942;4.028;2023-06-14T03:40:42;18.35;;;8.38;;
21036;SDS011;10677;50.942;4.028;2023-06-14T03:43:09;14.55;;;8.98;;
21036;SDS011;10677;50.942;4.028;2023-06-14T03:45:35;13.93;;;8.52;;
21036;SDS011;10677;50.942;4.028;2023-06-14T03:48:01;13.63;;;8.98;;
21036;SDS011;10677;50.942;4.028;2023-06-14T03:50:27;14.23;;;8.55;;
21036;SDS011;10677;50.942;4.028;2023-06-14T03:52:53;12.18;;;8.45;;
21036;SDS011;10677;50.942;4.028;2023-06-14T03:55:19;12.00;;;7.82;;
21036;SDS011;10677;50.942;4.028;2023-06-14T03:57:45;15.88;;;8.40;;
21036;SDS011;10677;50.942;4.028;2023-06-14T04:00:10;15.05;;;8.07;;
21036;SDS011;10677;50.942;4.028;2023-06-14T04:02:37;13.45;;;8.38;;
21036;SDS011;10677;50.942;4.028;2023-06-14T04:05:03;13.32;;;7.80;;
21036;SDS011;10677;50.942;4.028;2023-06-14T04:07:30;15.15;;;8.05;;
21036;SDS011;10677;50.942;4.028;2023-06-14T04:09:56;17.13;;;8.18;;
21036;SDS011;10677;50.942;4.028;2023-06-14T04:12:21;10.70;;;7.15;;
21036;SDS011;10677;50.942;4.028;2023-06-14T04:14:47;13.05;;;7.78;;
21036;SDS011;10677;50.942;4.028;2023-06-14T04:17:12;14.57;;;7.45;;
21036;SDS011;10677;50.942;4.028;2023-06-14T04:19:38;13.73;;;8.13;;
21036;SDS011;10677;50.942;4.028;2023-06-14T04:22:04;11.40;;;7.25;;
21036;SDS011;10677;50.942;4.028;2023-06-14T04:24:30;14.55;;;8.02;;
21036;SDS011;10677;50.942;4.028;2023-06-14T04:26:59;12.27;;;7.70;;
21036;SDS011;10677;50.942;4.028;2023-06-14T04:29:26;19.63;;;8.23;;
21036;SDS011;10677;50.942;4.028;2023-06-14T04:31:54;15.80;;;7.82;;
21036;SDS011;10677;50.942;4.028;2023-06-14T04:34:25;14.27;;;7.93;;
21036;SDS011;10677;50.942;4.028;2023-06-14T04:36:55;12.77;;;7.18;;
21036;SDS011;10677;50.942;4.028;2023-06-14T04:39:21;10.35;;;7.07;;
21036;SDS011;10677;50.942;4.028;2023-06-14T04:41:48;16.88;;;7.18;;
21036;SDS011;10677;50.942;4.028;2023-06-14T04:44:18;13.77;;;7.75;;
21036;SDS011;10677;50.942;4.028;2023-06-14T04:46:45;13.43;;;6.90;;
21036;SDS011;10677;50.942;4.028;2023-06-14T04:49:17;9.93;;;6.93;;
21036;SDS011;10677;50.942;4.028;2023-06-14T04:51:43;11.73;;;6.80;;
21036;SDS011;10677;50.942;4.028;2023-06-14T04:54:10;17.45;;;7.28;;
21036;SDS011;10677;50.942;4.028;2023-06-14T04:56:38;14.40;;;7.10;;
21036;SDS011;10677;50.942;4.028;2023-06-14T04:59:04;9.55;;;6.45;;
21036;SDS011;10677;50.942;4.028;2023-06-14T05:01:30;15.25;;;7.85;;
21036;SDS011;10677;50.942;4.028;2023-06-14T05:03:59;12.98;;;7.00;;
21036;SDS011;10677;50.942;4.028;2023-06-14T05:06:25;13.18;;;6.57;;
21036;SDS011;10677;50.942;4.028;2023-06-14T05:08:53;15.63;;;6.70;;
21036;SDS011;10677;50.942;4.028;2023-06-14T05:11:19;13.73;;;7.72;;
21036;SDS011;10677;50.942;4.028;2023-06-14T05:13:45;13.18;;;7.13;;
21036;SDS011;10677;50.942;4.028;2023-06-14T05:16:11;11.00;;;6.82;;
21036;SDS011;10677;50.942;4.028;2023-06-14T05:18:37;10.13;;;6.85;;
21036;SDS011;10677;50.942;4.028;2023-06-14T05:21:05;10.80;;;7.05;;
21036;SDS011;10677;50.942;4.028;2023-06-14T05:23:31;10.85;;;7.10;;
21036;SDS011;10677;50.942;4.028;2023-06-14T05:25:56;10.07;;;6.88;;
21036;SDS011;10677;50.942;4.028;2023-06-14T05:28:22;9.63;;;7.00;;
21036;SDS011;10677;50.942;4.028;2023-06-14T05:30:50;14.80;;;7.35;;
21036;SDS011;10677;50.942;4.028;2023-06-14T05:33:16;14.88;;;6.90;;
21036;SDS011;10677;50.942;4.028;2023-06-14T05:35:42;11.20;;;7.15;;
21036;SDS011;10677;50.942;4.028;2023-06-14T05:38:07;10.52;;;6.60;;
21036;SDS011;10677;50.942;4.028;2023-06-14T05:40:33;10.95;;;7.05;;
21036;SDS011;10677;50.942;4.028;2023-06-14T05:42:59;14.23;;;7.53;;
21036;SDS011;10677;50.942;4.028;2023-06-14T05:45:24;16.05;;;7.90;;
21036;SDS011;10677;50.942;4.028;2023-06-14T05:47:50;12.88;;;8.10;;
21036;SDS011;10677;50.942;4.028;2023-06-14T05:50:17;15.30;;;10.07;;
21036;SDS011;10677;50.942;4.028;2023-06-14T05:52:43;10.40;;;7.47;;
21036;SDS011;10677;50.942;4.028;2023-06-14T05:55:08;15.32;;;8.63;;
21036;SDS011;10677;50.942;4.028;2023-06-14T05:57:37;14.43;;;7.97;;
21036;SDS011;10677;50.942;4.028;2023-06-14T06:00:03;14.25;;;7.57;;
21036;SDS011;10677;50.942;4.028;2023-06-14T06:02:40;13.98;;;9.68;;
21036;SDS011;10677;50.942;4.028;2023-06-14T06:05:08;13.65;;;8.40;;
21036;SDS011;10677;50.942;4.028;2023-06-14T06:07:37;15.13;;;7.93;;
21036;SDS011;10677;50.942;4.028;2023-06-14T06:10:05;12.23;;;7.65;;
21036;SDS011;10677;50.942;4.028;2023-06-14T06:12:31;21.67;;;11.18;;
21036;SDS011;10677;50.942;4.028;2023-06-14T06:14:59;14.65;;;8.63;;
21036;SDS011;10677;50.942;4.028;2023-06-14T06:17:25;20.13;;;12.10;;
21036;SDS011;10677;50.942;4.028;2023-06-14T06:19:53;22.10;;;15.43;;
21036;SDS011;10677;50.942;4.028;2023-06-14T06:22:22;14.88;;;10.32;;
21036;SDS011;10677;50.942;4.028;2023-06-14T06:24:48;20.92;;;14.23;;
21036;SDS011;10677;50.942;4.028;2023-06-14T06:27:13;16.85;;;11.02;;
21036;SDS011;10677;50.942;4.028;2023-06-14T06:29:41;10.48;;;7.28;;
21036;SDS011;10677;50.942;4.028;2023-06-14T06:32:08;11.10;;;6.75;;
21036;SDS011;10677;50.942;4.028;2023-06-14T06:34:34;12.48;;;7.03;;
21036;SDS011;10677;50.942;4.028;2023-06-14T06:37:02;13.23;;;7.75;;
21036;SDS011;10677;50.942;4.028;2023-06-14T06:39:28;12.52;;;6.80;;
21036;SDS011;10677;50.942;4.028;2023-06-14T06:41:54;17.27;;;8.98;;
21036;SDS011;10677;50.942;4.028;2023-06-14T06:44:20;12.40;;;7.47;;
21036;SDS011;10677;50.942;4.028;2023-06-14T06:46:48;11.80;;;7.20;;
21036;SDS011;10677;50.942;4.028;2023-06-14T06:49:14;13.85;;;7.60;;
21036;SDS011;10677;50.942;4.028;2023-06-14T06:51:41;12.10;;;7.03;;
21036;SDS011;10677;50.942;4.028;2023-06-14T06:54:08;12.38;;;7.20;;
21036;SDS011;10677;50.942;4.028;2023-06-14T06:56:36;13.20;;;7.03;;
21036;SDS011;10677;50.942;4.028;2023-06-14T06:59:03;12.35;;;7.00;;
21036;SDS011;10677;50.942;4.028;2023-06-14T07:01:29;18.20;;;7.03;;
21036;SDS011;10677;50.942;4.028;2023-06-14T07:03:55;15.38;;;6.82;;
21036;SDS011;10677;50.942;4.028;2023-06-14T07:06:21;14.93;;;7.50;;
21036;SDS011;10677;50.942;4.028;2023-06-14T07:08:47;12.57;;;6.97;;
21036;SDS011;10677;50.942;4.028;2023-06-14T07:11:15;13.48;;;7.30;;
21036;SDS011;10677;50.942;4.028;2023-06-14T07:13:41;11.80;;;7.32;;
21036;SDS011;10677;50.942;4.028;2023-06-14T07:16:07;12.15;;;6.88;;
21036;SDS011;10677;50.942;4.028;2023-06-14T07:18:32;18.10;;;7.15;;
21036;SDS011;10677;50.942;4.028;2023-06-14T07:20:58;12.10;;;6.68;;
21036;SDS011;10677;50.942;4.028;2023-06-14T07:23:24;13.98;;;6.55;;
21036;SDS011;10677;50.942;4.028;2023-06-14T07:25:50;12.05;;;6.72;;
21036;SDS011;10677;50.942;4.028;2023-06-14T07:28:16;13.50;;;6.22;;
21036;SDS011;10677;50.942;4.028;2023-06-14T07:30:43;12.45;;;7.15;;
21036;SDS011;10677;50.942;4.028;2023-06-14T07:33:10;11.95;;;6.35;;
21036;SDS011;10677;50.942;4.028;2023-06-14T07:35:37;8.82;;;5.95;;
21036;SDS011;10677;50.942;4.028;2023-06-14T07:38:03;10.82;;;6.28;;
21036;SDS011;10677;50.942;4.028;2023-06-14T07:40:28;12.02;;;5.85;;
21036;SDS011;10677;50.942;4.028;2023-06-14T07:42:54;15.05;;;6.68;;
21036;SDS011;10677;50.942;4.028;2023-06-14T07:45:20;11.52;;;6.60;;
21036;SDS011;10677;50.942;4.028;2023-06-14T07:47:46;10.05;;;6.22;;
21036;SDS011;10677;50.942;4.028;2023-06-14T07:50:11;11.02;;;6.38;;
21036;SDS011;10677;50.942;4.028;2023-06-14T07:52:38;8.20;;;6.00;;
21036;SDS011;10677;50.942;4.028;2023-06-14T07:55:05;9.38;;;6.35;;
21036;SDS011;10677;50.942;4.028;2023-06-14T07:57:31;8.40;;;5.40;;
21036;SDS011;10677;50.942;4.028;2023-06-14T07:59:57;13.40;;;5.93;;
21036;SDS011;10677;50.942;4.028;2023-06-14T08:02:22;11.25;;;6.35;;
21036;SDS011;10677;50.942;4.028;2023-06-14T08:04:48;14.50;;;6.93;;
21036;SDS011;10677;50.942;4.028;2023-06-14T08:07:14;11.30;;;7.20;;
21036;SDS011;10677;50.942;4.028;2023-06-14T08:09:40;9.45;;;6.50;;
21036;SDS011;10677;50.942;4.028;2023-06-14T08:12:06;11.90;;;6.15;;
21036;SDS011;10677;50.942;4.028;2023-06-14T08:14:34;10.80;;;6.32;;
21036;SDS011;10677;50.942;4.028;2023-06-14T08:17:00;10.32;;;5.93;;
21036;SDS011;10677;50.942;4.028;2023-06-14T08:19:26;11.52;;;6.22;;
21036;SDS011;10677;50.942;4.028;2023-06-14T08:21:52;12.98;;;5.95;;
21036;SDS011;10677;50.942;4.028;2023-06-14T08:24:23;8.93;;;5.53;;
21036;SDS011;10677;50.942;4.028;2023-06-14T08:26:54;8.98;;;5.13;;
21036;SDS011;10677;50.942;4.028;2023-06-14T08:29:21;11.48;;;6.00;;
21036;SDS011;10677;50.942;4.028;2023-06-14T08:31:47;9.68;;;6.00;;
21036;SDS011;10677;50.942;4.028;2023-06-14T08:34:13;12.23;;;6.05;;
21036;SDS011;10677;50.942;4.028;2023-06-14T08:36:39;13.02;;;6.10;;
21036;SDS011;10677;50.942;4.028;2023-06-14T08:39:04;12.30;;;5.78;;
21036;SDS011;10677;50.942;4.028;2023-06-14T08:41:31;13.23;;;5.97;;
21036;SDS011;10677;50.942;4.028;2023-06-14T08:43:58;11.88;;;5.80;;
21036;SDS011;10677;50.942;4.028;2023-06-14T08:46:25;12.27;;;5.53;;
21036;SDS011;10677;50.942;4.028;2023-06-14T08:48:55;10.88;;;5.32;;
21036;SDS011;10677;50.942;4.028;2023-06-14T08:51:25;9.68;;;5.47;;
21036;SDS011;10677;50.942;4.028;2023-06-14T08:53:54;11.23;;;5.53;;
21036;SDS011;10677;50.942;4.028;2023-06-14T08:56:27;11.13;;;5.60;;
21036;SDS011;10677;50.942;4.028;2023-06-14T08:58:54;12.88;;;5.68;;
21036;SDS011;10677;50.942;4.028;2023-06-14T09:01:21;8.98;;;5.38;;
21036;SDS011;10677;50.942;4.028;2023-06-14T09:03:48;10.48;;;6.22;;
21036;SDS011;10677;50.942;4.028;2023-06-14T09:06:15;9.02;;;5.45;;
21036;SDS011;10677;50.942;4.028;2023-06-14T09:08:42;10.32;;;4.95;;
21036;SDS011;10677;50.942;4.028;2023-06-14T09:11:15;8.52;;;5.18;;
21036;SDS011;10677;50.942;4.028;2023-06-14T09:13:44;8.90;;;5.18;;
21036;SDS011;10677;50.942;4.028;2023-06-14T09:16:12;9.10;;;5.20;;
21036;SDS011;10677;50.942;4.028;2023-06-14T09:18:39;14.50;;;5.22;;
21036;SDS011;10677;50.942;4.028;2023-06-14T09:21:08;16.60;;;5.72;;
21036;SDS011;10677;50.942;4.028;2023-06-14T09:23:39;15.05;;;5.10;;
21036;SDS011;10677;50.942;4.028;2023-06-14T09:28:58;11.00;;;5.72;;
21036;SDS011;10677;50.942;4.028;2023-06-14T09:31:25;10.43;;;5.75;;
21036;SDS011;10677;50.942;4.028;2023-06-14T09:33:54;9.32;;;5.15;;
21036;SDS011;10677;50.942;4.028;2023-06-14T09:36:22;11.05;;;5.53;;
21036;SDS011;10677;50.942;4.028;2023-06-14T09:38:55;11.00;;;4.68;;
21036;SDS011;10677;50.942;4.028;2023-06-14T09:41:41;11.60;;;5.95;;
21036;SDS011;10677;50.942;4.028;2023-06-14T09:44:08;10.48;;;5.20;;
21036;SDS011;10677;50.942;4.028;2023-06-14T09:46:35;9.88;;;4.78;;
21036;SDS011;10677;50.942;4.028;2023-06-14T09:49:03;10.43;;;5.15;;
21036;SDS011;10677;50.942;4.028;2023-06-14T09:51:30;10.30;;;4.97;;
21036;SDS011;10677;50.942;4.028;2023-06-14T09:53:59;11.40;;;5.55;;
21036;SDS011;10677;50.942;4.028;2023-06-14T09:56:30;15.75;;;5.75;;
21036;SDS011;10677;50.942;4.028;2023-06-14T09:59:04;9.90;;;5.63;;
21036;SDS011;10677;50.942;4.028;2023-06-14T10:01:32;8.68;;;5.70;;
21036;SDS011;10677;50.942;4.028;2023-06-14T10:04:04;8.52;;;5.55;;
21036;SDS011;10677;50.942;4.028;2023-06-14T10:06:30;9.88;;;5.25;;
21036;SDS011;10677;50.942;4.028;2023-06-14T10:08:58;11.63;;;5.72;;
21036;SDS011;10677;50.942;4.028;2023-06-14T10:11:28;11.40;;;5.25;;
21036;SDS011;10677;50.942;4.028;2023-06-14T10:13:58;9.80;;;5.10;;
21036;SDS011;10677;50.942;4.028;2023-06-14T10:22:01;9.77;;;4.72;;
21036;SDS011;10677;50.942;4.028;2023-06-14T10:24:41;10.27;;;4.93;;
21036;SDS011;10677;50.942;4.028;2023-06-14T10:27:09;8.00;;;5.25;;
21036;SDS011;10677;50.942;4.028;2023-06-14T10:30:01;10.07;;;5.60;;
21036;SDS011;10677;50.942;4.028;2023-06-14T10:32:27;11.57;;;5.35;;
21036;SDS011;10677;50.942;4.028;2023-06-14T10:34:57;10.43;;;5.43;;
21036;SDS011;10677;50.942;4.028;2023-06-14T10:37:31;10.23;;;5.57;;
21036;SDS011;10677;50.942;4.028;2023-06-14T10:39:57;10.60;;;5.03;;
21036;SDS011;10677;50.942;4.028;2023-06-14T10:42:27;9.73;;;5.75;;
21036;SDS011;10677;50.942;4.028;2023-06-14T10:44:56;8.65;;;5.57;;
21036;SDS011;10677;50.942;4.028;2023-06-14T10:47:26;11.27;;;4.82;;
21036;SDS011;10677;50.942;4.028;2023-06-14T10:50:13;10.07;;;5.07;;
21036;SDS011;10677;50.942;4.028;2023-06-14T10:52:43;10.95;;;4.78;;
21036;SDS011;10677;50.942;4.028;2023-06-14T10:55:15;8.07;;;4.80;;
21036;SDS011;10677;50.942;4.028;2023-06-14T10:57:51;8.52;;;4.80;;
21036;SDS011;10677;50.942;4.028;2023-06-14T11:00:25;7.05;;;4.85;;
21036;SDS011;10677;50.942;4.028;2023-06-14T11:11:37;12.57;;;4.80;;
21036;SDS011;10677;50.942;4.028;2023-06-14T11:14:06;9.63;;;4.95;;
21036;SDS011;10677;50.942;4.028;2023-06-14T11:16:32;9.70;;;5.20;;
21036;SDS011;10677;50.942;4.028;2023-06-14T11:18:59;7.85;;;4.47;;
21036;SDS011;10677;50.942;4.028;2023-06-14T11:21:28;8.65;;;4.30;;
21036;SDS011;10677;50.942;4.028;2023-06-14T11:23:56;8.77;;;4.30;;
21036;SDS011;10677;50.942;4.028;2023-06-14T11:26:29;11.43;;;5.35;;
21036;SDS011;10677;50.942;4.028;2023-06-14T11:28:56;12.15;;;4.60;;
21036;SDS011;10677;50.942;4.028;2023-06-14T11:31:26;7.95;;;4.85;;
21036;SDS011;10677;50.942;4.028;2023-06-14T11:33:56;7.55;;;4.13;;
21036;SDS011;10677;50.942;4.028;2023-06-14T11:36:25;8.63;;;4.60;;
21036;SDS011;10677;50.942;4.028;2023-06-14T11:38:57;7.32;;;4.50;;
21036;SDS011;10677;50.942;4.028;2023-06-14T11:41:24;6.03;;;4.55;;
21036;SDS011;10677;50.942;4.028;2023-06-14T11:43:52;8.68;;;4.70;;
21036;SDS011;10677;50.942;4.028;2023-06-14T11:46:19;9.48;;;4.50;;
21036;SDS011;10677;50.942;4.028;2023-06-14T11:48:49;5.80;;;4.38;;
21036;SDS011;10677;50.942;4.028;2023-06-14T11:51:14;7.05;;;4.30;;
21036;SDS011;10677;50.942;4.028;2023-06-14T11:53:40;14.05;;;4.43;;
21036;SDS011;10677;50.942;4.028;2023-06-14T11:56:08;8.95;;;4.55;;
21036;SDS011;10677;50.942;4.028;2023-06-14T11:58:35;16.40;;;4.43;;
21036;SDS011;10677;50.942;4.028;2023-06-14T12:01:02;12.85;;;4.95;;
21036;SDS011;10677;50.942;4.028;2023-06-14T12:03:28;9.38;;;4.32;;
21036;SDS011;10677;50.942;4.028;2023-06-14T12:06:07;8.90;;;4.40;;
21036;SDS011;10677;50.942;4.028;2023-06-14T12:08:34;8.98;;;4.20;;
21036;SDS011;10677;50.942;4.028;2023-06-14T12:11:04;9.38;;;4.07;;
21036;SDS011;10677;50.942;4.028;2023-06-14T12:13:40;6.05;;;3.92;;
21036;SDS011;10677;50.942;4.028;2023-06-14T12:16:10;10.25;;;4.00;;
21036;SDS011;10677;50.942;4.028;2023-06-14T12:18:37;8.65;;;3.83;;
21036;SDS011;10677;50.942;4.028;2023-06-14T12:21:07;7.95;;;3.92;;
21036;SDS011;10677;50.942;4.028;2023-06-14T12:23:38;11.13;;;4.25;;
21036;SDS011;10677;50.942;4.028;2023-06-14T12:26:08;8.52;;;3.80;;
21036;SDS011;10677;50.942;4.028;2023-06-14T12:28:34;7.70;;;3.92;;
21036;SDS011;10677;50.942;4.028;2023-06-14T12:31:00;14.10;;;4.57;;
21036;SDS011;10677;50.942;4.028;2023-06-14T12:33:25;7.45;;;4.03;;
21036;SDS011;10677;50.942;4.028;2023-06-14T12:35:54;6.93;;;4.10;;
21036;SDS011;10677;50.942;4.028;2023-06-14T12:38:21;7.45;;;4.10;;
21036;SDS011;10677;50.942;4.028;2023-06-14T12:40:46;7.05;;;4.40;;
21036;SDS011;10677;50.942;4.028;2023-06-14T12:43:12;5.28;;;4.03;;
21036;SDS011;10677;50.942;4.028;2023-06-14T12:45:38;5.82;;;4.28;;
21036;SDS011;10677;50.942;4.028;2023-06-14T12:48:04;7.30;;;4.25;;
21036;SDS011;10677;50.942;4.028;2023-06-14T12:50:29;9.95;;;4.15;;
21036;SDS011;10677;50.942;4.028;2023-06-14T12:52:55;7.65;;;3.75;;
21036;SDS011;10677;50.942;4.028;2023-06-14T12:55:21;13.07;;;4.10;;
21036;SDS011;10677;50.942;4.028;2023-06-14T12:57:46;6.07;;;4.00;;
21036;SDS011;10677;50.942;4.028;2023-06-14T13:00:14;7.30;;;4.40;;
21036;SDS011;10677;50.942;4.028;2023-06-14T13:02:40;7.88;;;3.70;;
21036;SDS011;10677;50.942;4.028;2023-06-14T13:05:06;9.02;;;4.00;;
21036;SDS011;10677;50.942;4.028;2023-06-14T13:07:32;7.32;;;3.65;;
21036;SDS011;10677;50.942;4.028;2023-06-14T13:09:57;8.32;;;3.90;;
21036;SDS011;10677;50.942;4.028;2023-06-14T13:12:23;9.93;;;5.60;;
21036;SDS011;10677;50.942;4.028;2023-06-14T13:14:49;8.05;;;4.05;;
21036;SDS011;10677;50.942;4.028;2023-06-14T13:17:14;6.45;;;3.30;;
21036;SDS011;10677;50.942;4.028;2023-06-14T13:19:40;6.43;;;3.88;;
21036;SDS011;10677;50.942;4.028;2023-06-14T13:22:07;10.95;;;4.20;;
21036;SDS011;10677;50.942;4.028;2023-06-14T13:24:33;8.57;;;4.35;;
21036;SDS011;10677;50.942;4.028;2023-06-14T13:26:59;11.73;;;4.18;;
21036;SDS011;10677;50.942;4.028;2023-06-14T13:29:25;7.82;;;3.72;;
21036;SDS011;10677;50.942;4.028;2023-06-14T13:31:51;9.05;;;3.97;;
21036;SDS011;10677;50.942;4.028;2023-06-14T13:34:17;8.18;;;3.55;;
21036;SDS011;10677;50.942;4.028;2023-06-14T13:36:43;8.23;;;3.90;;
21036;SDS011;10677;50.942;4.028;2023-06-14T13:39:09;5.40;;;3.55;;
21036;SDS011;10677;50.942;4.028;2023-06-14T13:41:36;6.97;;;3.72;;
21036;SDS011;10677;50.942;4.028;2023-06-14T13:44:01;7.68;;;3.58;;
21036;SDS011;10677;50.942;4.028;2023-06-14T13:46:30;8.10;;;3.75;;
21036;SDS011;10677;50.942;4.028;2023-06-14T13:48:56;9.05;;;3.72;;
21036;SDS011;10677;50.942;4.028;2023-06-14T13:51:23;9.38;;;3.70;;
21036;SDS011;10677;50.942;4.028;2023-06-14T13:53:49;7.82;;;3.70;;
21036;SDS011;10677;50.942;4.028;2023-06-14T13:56:15;6.20;;;3.30;;
21036;SDS011;10677;50.942;4.028;2023-06-14T13:58:41;8.57;;;4.25;;
21036;SDS011;10677;50.942;4.028;2023-06-14T14:01:07;8.68;;;3.38;;
21036;SDS011;10677;50.942;4.028;2023-06-14T14:03:35;8.68;;;3.38;;
21036;SDS011;10677;50.942;4.028;2023-06-14T14:06:01;9.15;;;3.75;;
21036;SDS011;10677;50.942;4.028;2023-06-14T14:08:27;7.78;;;3.50;;
21036;SDS011;10677;50.942;4.028;2023-06-14T14:10:53;8.45;;;3.38;;
21036;SDS011;10677;50.942;4.028;2023-06-14T14:13:21;5.78;;;3.33;;
21036;SDS011;10677;50.942;4.028;2023-06-14T14:15:47;6.30;;;3.00;;
21036;SDS011;10677;50.942;4.028;2023-06-14T14:18:14;7.50;;;3.00;;
21036;SDS011;10677;50.942;4.028;2023-06-14T14:20:40;9.30;;;3.10;;
21036;SDS011;10677;50.942;4.028;2023-06-14T14:23:06;7.35;;;2.85;;
21036;SDS011;10677;50.942;4.028;2023-06-14T14:25:31;7.50;;;2.50;;
21036;SDS011;10677;50.942;4.028;2023-06-14T14:27:57;8.23;;;2.83;;
21036;SDS011;10677;50.942;4.028;2023-06-14T14:30:23;5.15;;;2.80;;
21036;SDS011;10677;50.942;4.028;2023-06-14T14:32:49;7.88;;;3.20;;
21036;SDS011;10677;50.942;4.028;2023-06-14T14:35:17;7.30;;;2.80;;
21036;SDS011;10677;50.942;4.028;2023-06-14T14:37:43;8.60;;;3.05;;
21036;SDS011;10677;50.942;4.028;2023-06-14T14:40:09;8.65;;;2.72;;
21036;SDS011;10677;50.942;4.028;2023-06-14T14:42:36;4.97;;;2.50;;
21036;SDS011;10677;50.942;4.028;2023-06-14T14:45:02;7.18;;;2.40;;
21036;SDS011;10677;50.942;4.028;2023-06-14T14:47:28;3.55;;;2.55;;
21036;SDS011;10677;50.942;4.028;2023-06-14T14:49:54;4.70;;;2.20;;
21036;SDS011;10677;50.942;4.028;2023-06-14T14:52:19;5.32;;;2.45;;
21036;SDS011;10677;50.942;4.028;2023-06-14T14:54:45;2.60;;;1.85;;
21036;SDS011;10677;50.942;4.028;2023-06-14T14:57:11;4.13;;;2.42;;